Time;durP1;ratioP1;P1;durP2;ratioP2;P2;SDS_P1;SDS_P2;PMS_P1;PMS_P2;Temp;Humidity;BMP_temperature;BMP_pressure;BME280_temperature;BME280_humidity;BME280_pressure;Samples;Min_cycle;Max_cycle;Signal;HPM_P1;HPM_P2
2020/12/04 00:01:31;;;;;;;32.38;18.65;;;0.50;99.90;;;;;;5048997;28;20111;-74
2020/12/04 00:03:57;;;;;;;29.38;20.15;;;0.60;99.90;;;;;;5045177;28;20387;-71
2020/12/04 00:06:23;;;;;;;28.60;18.40;;;0.50;99.90;;;;;;5052699;28;20452;-74
2020/12/04 00:08:50;;;;;;;32.63;19.85;;;0.50;99.90;;;;;;5050767;28;20450;-71
2020/12/04 00:11:16;;;;;;;33.05;20.27;;;0.40;99.90;;;;;;5051537;28;20080;-72
2020/12/04 00:13:43;;;;;;;34.08;20.92;;;0.40;99.90;;;;;;5046435;28;20203;-72
2020/12/04 00:16:09;;;;;;;34.08;21.25;;;0.40;99.90;;;;;;5049267;28;20045;-72
2020/12/04 00:18:35;;;;;;;33.20;20.45;;;0.30;99.90;;;;;;5030197;28;20129;-72
2020/12/04 00:21:02;;;;;;;33.60;20.98;;;0.30;99.90;;;;;;5029633;28;20059;-72
2020/12/04 00:23:28;;;;;;;36.63;21.35;;;0.20;99.90;;;;;;5032308;28;20487;-72
2020/12/04 00:25:55;;;;;;;37.78;22.30;;;0.20;99.90;;;;;;5031598;28;20140;-72
2020/12/04 00:28:22;;;;;;;32.35;20.15;;;0.20;99.90;;;;;;5014444;28;20050;-72
2020/12/04 00:30:48;;;;;;;35.38;21.17;;;0.10;99.90;;;;;;5029462;28;20110;-72
2020/12/04 00:33:14;;;;;;;34.92;20.45;;;0.10;99.90;;;;;;5012978;28;20123;-72
2020/12/04 00:35:41;;;;;;;32.72;20.38;;;0.00;99.90;;;;;;5030265;28;20128;-74
2020/12/04 00:38:08;;;;;;;31.65;19.60;;;0.00;99.90;;;;;;5032006;28;20122;-72
2020/12/04 00:40:34;;;;;;;30.48;18.52;;;0.10;99.90;;;;;;5007410;28;20471;-72
2020/12/04 00:43:00;;;;;;;34.10;19.92;;;0.10;99.90;;;;;;5014100;28;20072;-71
2020/12/04 00:45:27;;;;;;;35.05;19.88;;;0.20;99.90;;;;;;5012946;28;20080;-73
2020/12/04 00:47:54;;;;;;;33.00;19.48;;;0.20;99.90;;;;;;5009038;28;20049;-75
2020/12/04 00:50:20;;;;;;;32.05;19.95;;;0.10;99.90;;;;;;5032154;28;20149;-72
2020/12/04 00:52:47;;;;;;;32.33;19.48;;;0.10;99.90;;;;;;5004527;28;20053;-72
2020/12/04 00:55:15;;;;;;;35.80;21.42;;;0.10;99.90;;;;;;5029059;28;20120;-71
2020/12/04 00:57:41;;;;;;;33.10;20.95;;;0.10;99.90;;;;;;5032019;28;20108;-72
2020/12/04 01:00:08;;;;;;;33.65;20.95;;;0.10;99.90;;;;;;5031321;28;20049;-72
2020/12/04 01:02:34;;;;;;;37.10;21.77;;;0.10;99.90;;;;;;5006304;28;20081;-71
2020/12/04 01:05:00;;;;;;;31.90;19.65;;;0.10;99.90;;;;;;5031854;28;20104;-71
2020/12/04 01:07:27;;;;;;;33.40;19.92;;;0.10;99.90;;;;;;5012789;28;20551;-72
2020/12/04 01:09:54;;;;;;;31.85;20.45;;;0.20;99.90;;;;;;5030939;28;20053;-71
2020/12/04 01:12:20;;;;;;;33.17;20.00;;;0.20;99.90;;;;;;5030993;28;20075;-71
2020/12/04 01:14:46;;;;;;;39.80;21.30;;;0.20;99.90;;;;;;5013429;28;20487;-74
2020/12/04 01:17:13;;;;;;;33.13;20.98;;;0.20;99.90;;;;;;5021928;28;20115;-72
2020/12/04 01:19:40;;;;;;;37.83;22.08;;;0.20;99.90;;;;;;5050988;28;20075;-72
2020/12/04 01:22:07;;;;;;;34.42;19.85;;;0.10;99.90;;;;;;5049972;28;20106;-73
2020/12/04 01:24:34;;;;;;;40.17;21.85;;;0.10;99.90;;;;;;5040142;28;20127;-73
2020/12/04 01:27:01;;;;;;;33.72;20.10;;;0.10;99.90;;;;;;5048559;28;20053;-73
2020/12/04 01:29:28;;;;;;;37.72;21.05;;;0.10;99.90;;;;;;5048816;28;20506;-73
2020/12/04 01:31:54;;;;;;;35.25;20.77;;;0.10;99.90;;;;;;5047688;28;20052;-73
2020/12/04 01:34:21;;;;;;;31.05;19.55;;;0.10;99.90;;;;;;5051057;28;20076;-72
2020/12/04 01:36:50;;;;;;;33.10;19.77;;;0.10;99.90;;;;;;5050773;28;20083;-71
2020/12/04 01:39:17;;;;;;;30.98;18.92;;;0.20;99.90;;;;;;5049644;28;20148;-72
2020/12/04 01:41:43;;;;;;;29.80;18.30;;;0.20;99.90;;;;;;5049560;28;20084;-72
2020/12/04 01:44:09;;;;;;;27.35;16.63;;;0.20;99.90;;;;;;5051260;28;20634;-74
2020/12/04 01:46:36;;;;;;;30.50;17.80;;;0.20;99.90;;;;;;5040387;28;20132;-76
2020/12/04 01:49:02;;;;;;;31.88;18.85;;;0.20;99.90;;;;;;5050819;28;20087;-73
2020/12/04 01:51:31;;;;;;;35.15;21.17;;;0.30;99.90;;;;;;5048369;28;20107;-74
2020/12/04 01:53:57;;;;;;;32.33;19.63;;;0.20;99.90;;;;;;5048989;28;20041;-73
2020/12/04 01:56:24;;;;;;;31.65;19.35;;;0.20;99.90;;;;;;5050731;28;20045;-72
2020/12/04 01:58:50;;;;;;;30.25;18.95;;;0.10;99.90;;;;;;5050087;28;20108;-71
2020/12/04 02:01:17;;;;;;;29.88;17.13;;;0.10;99.90;;;;;;5048163;28;20127;-71
2020/12/04 02:03:44;;;;;;;28.75;17.75;;;0.10;99.90;;;;;;5049921;28;20073;-73
2020/12/04 02:06:28;;;;;;;29.85;18.60;;;0.20;99.90;;;;;;5049848;28;20048;-73
2020/12/04 02:09:09;;;;;;;29.77;18.27;;;0.20;99.90;;;;;;5043782;28;20799;-72
2020/12/04 02:11:37;;;;;;;32.13;18.48;;;0.20;99.90;;;;;;5049308;28;20068;-74
2020/12/04 02:14:05;;;;;;;26.45;16.60;;;0.20;99.90;;;;;;5049160;28;20103;-73
2020/12/04 02:16:32;;;;;;;28.50;16.88;;;0.20;99.90;;;;;;5047138;28;20429;-73
2020/12/04 02:18:58;;;;;;;27.38;16.67;;;0.20;99.90;;;;;;5007776;28;20140;-72
2020/12/04 02:21:26;;;;;;;25.40;15.43;;;0.20;99.90;;;;;;5012797;28;20053;-74
2020/12/04 02:23:53;;;;;;;26.02;16.95;;;0.30;99.90;;;;;;5010314;28;20063;-72
2020/12/04 02:26:21;;;;;;;25.98;16.20;;;0.30;99.90;;;;;;5029948;28;20077;-73
2020/12/04 02:28:48;;;;;;;27.70;17.02;;;0.30;99.90;;;;;;5010771;28;20076;-73
2020/12/04 02:31:15;;;;;;;26.77;16.35;;;0.30;99.90;;;;;;5026041;28;20476;-73
2020/12/04 02:33:42;;;;;;;29.33;18.10;;;0.30;99.90;;;;;;5022626;28;20416;-74
2020/12/04 02:36:09;;;;;;;33.70;20.63;;;0.30;99.90;;;;;;5028629;28;20045;-72
2020/12/04 02:38:36;;;;;;;35.08;21.45;;;0.20;99.90;;;;;;5029248;28;20132;-71
2020/12/04 02:41:06;;;;;;;33.75;20.55;;;0.20;99.90;;;;;;5029795;28;20052;-72
2020/12/04 02:43:33;;;;;;;29.48;17.60;;;0.20;99.90;;;;;;5029970;28;20589;-73
2020/12/04 02:45:59;;;;;;;28.48;18.13;;;0.10;99.90;;;;;;5009455;28;21673;-72
2020/12/04 02:48:26;;;;;;;29.35;17.90;;;0.10;99.90;;;;;;5011269;28;20083;-73
2020/12/04 02:50:53;;;;;;;28.90;17.40;;;0.10;99.90;;;;;;5029567;28;20092;-72
2020/12/04 02:53:19;;;;;;;28.23;17.52;;;0.10;99.90;;;;;;5029003;28;20045;-72
2020/12/04 02:55:46;;;;;;;28.48;16.92;;;0.10;99.90;;;;;;5028703;28;20108;-73
2020/12/04 02:58:12;;;;;;;26.95;16.98;;;0.10;99.90;;;;;;5001556;28;20500;-72
2020/12/04 03:00:38;;;;;;;31.33;17.17;;;0.00;99.90;;;;;;5027838;28;20049;-73
2020/12/04 03:03:05;;;;;;;28.23;17.60;;;0.00;99.90;;;;;;5022989;28;20103;-72
2020/12/04 03:05:31;;;;;;;27.40;17.20;;;0.00;99.90;;;;;;5014010;28;20078;-73
2020/12/04 03:07:57;;;;;;;28.08;17.60;;;0.00;99.90;;;;;;5023032;28;20046;-74
2020/12/04 03:10:24;;;;;;;28.48;16.98;;;0.00;99.90;;;;;;5022886;28;20050;-73
2020/12/04 03:12:51;;;;;;;25.30;16.30;;;0.00;99.90;;;;;;5010657;28;20041;-72
2020/12/04 03:15:17;;;;;;;27.35;16.55;;;-0.10;99.90;;;;;;5021403;28;20136;-72
2020/12/04 03:17:43;;;;;;;27.48;16.65;;;0.00;99.90;;;;;;5029400;28;20522;-71
2020/12/04 03:20:09;;;;;;;29.15;17.60;;;0.00;99.90;;;;;;5047517;28;20079;-72
2020/12/04 03:22:36;;;;;;;26.55;17.02;;;0.10;99.90;;;;;;5048832;28;20076;-75
2020/12/04 03:25:02;;;;;;;25.80;15.85;;;0.10;99.90;;;;;;5047533;28;20053;-72
2020/12/04 03:27:29;;;;;;;25.48;16.60;;;0.10;99.90;;;;;;5046215;28;20148;-73
2020/12/04 03:29:56;;;;;;;27.33;17.08;;;0.20;99.90;;;;;;5034463;28;20049;-72
2020/12/04 03:32:22;;;;;;;28.52;16.38;;;0.20;99.90;;;;;;5041009;28;20464;-72
2020/12/04 03:34:48;;;;;;;29.48;17.40;;;0.20;99.90;;;;;;5047117;28;20041;-72
2020/12/04 03:37:15;;;;;;;27.38;15.80;;;0.30;99.90;;;;;;5046914;28;20104;-72
2020/12/04 03:39:41;;;;;;;23.38;14.52;;;0.50;99.90;;;;;;5046748;28;20132;-73
2020/12/04 03:42:07;;;;;;;24.25;15.85;;;0.50;99.90;;;;;;5044230;28;20455;-72
2020/12/04 03:44:34;;;;;;;24.98;15.00;;;0.50;99.90;;;;;;5049031;28;20048;-73
2020/12/04 03:47:00;;;;;;;21.65;14.73;;;0.50;99.90;;;;;;5035184;28;20046;-73
2020/12/04 03:49:27;;;;;;;25.15;16.02;;;0.50;99.90;;;;;;5048791;28;20110;-72
2020/12/04 03:51:54;;;;;;;24.75;14.98;;;0.50;99.90;;;;;;5048351;28;20053;-71
2020/12/04 03:54:20;;;;;;;23.83;14.82;;;0.50;99.90;;;;;;5047681;28;20128;-73
2020/12/04 03:56:47;;;;;;;22.65;14.93;;;0.50;99.90;;;;;;5048865;28;20080;-72
2020/12/04 03:59:13;;;;;;;24.90;15.10;;;0.60;99.90;;;;;;5048398;28;20139;-72
2020/12/04 04:01:39;;;;;;;24.42;15.43;;;0.60;99.90;;;;;;5039013;28;20402;-72
2020/12/04 04:04:06;;;;;;;23.23;15.25;;;0.60;99.90;;;;;;5047456;28;20068;-73
2020/12/04 04:06:33;;;;;;;25.25;16.55;;;0.60;99.90;;;;;;5046567;28;20506;-74
2020/12/04 04:08:59;;;;;;;26.17;16.45;;;0.60;99.90;;;;;;5047699;28;20148;-73
2020/12/04 04:11:26;;;;;;;26.90;16.25;;;0.60;99.90;;;;;;5045525;28;20081;-73
2020/12/04 04:13:52;;;;;;;25.13;16.02;;;0.50;99.90;;;;;;5048289;28;20138;-72
2020/12/04 04:16:19;;;;;;;27.85;17.77;;;0.50;99.90;;;;;;5047010;28;20056;-72
2020/12/04 04:18:45;;;;;;;27.00;17.08;;;0.50;99.90;;;;;;5046864;28;20091;-71
2020/12/04 04:21:12;;;;;;;21.73;15.13;;;0.50;99.90;;;;;;5041168;28;20095;-72
2020/12/04 04:23:40;;;;;;;24.95;16.00;;;0.50;99.90;;;;;;5047631;28;20076;-73
2020/12/04 04:26:07;;;;;;;25.27;15.85;;;0.50;99.90;;;;;;5047800;28;20107;-73
2020/12/04 04:28:34;;;;;;;25.83;16.42;;;0.50;99.90;;;;;;5046884;28;20045;-74
2020/12/04 04:31:00;;;;;;;25.90;16.67;;;0.60;99.90;;;;;;5049890;28;20068;-73
2020/12/04 04:33:27;;;;;;;24.60;15.52;;;0.60;99.90;;;;;;5047100;28;20099;-73
2020/12/04 04:35:53;;;;;;;23.83;16.00;;;0.60;99.90;;;;;;5034375;28;20471;-71
2020/12/04 04:38:20;;;;;;;27.25;16.25;;;0.60;99.90;;;;;;5050501;28;20048;-72
2020/12/04 04:40:53;;;;;;;23.65;14.75;;;0.70;99.90;;;;;;5049979;28;20044;-74
2020/12/04 04:43:19;;;;;;;26.23;15.68;;;0.70;99.90;;;;;;5052292;28;20140;-71
2020/12/04 04:46:20;;;;;;;26.40;16.90;;;0.80;99.90;;;;;;5047357;28;20068;-74
2020/12/04 04:48:56;;;;;;;24.30;13.73;;;0.80;99.90;;;;;;5039957;28;20079;-73
2020/12/04 04:51:24;;;;;;;22.95;14.80;;;0.80;99.90;;;;;;5048145;28;20128;-74
2020/12/04 04:53:58;;;;;;;21.83;14.75;;;0.80;99.90;;;;;;5049602;28;20061;-72
2020/12/04 04:56:25;;;;;;;25.77;15.80;;;0.90;99.90;;;;;;5050654;28;20392;-73
2020/12/04 04:58:51;;;;;;;27.48;16.55;;;0.90;99.90;;;;;;5046842;28;20504;-72
2020/12/04 05:01:20;;;;;;;25.35;16.60;;;0.90;99.90;;;;;;5033443;28;20571;-72
2020/12/04 05:03:59;;;;;;;25.45;16.85;;;0.80;99.90;;;;;;5051237;28;20152;-71
2020/12/04 05:06:32;;;;;;;26.98;17.10;;;0.80;99.90;;;;;;5051527;28;20428;-72
2020/12/04 05:08:59;;;;;;;25.55;15.45;;;0.70;99.90;;;;;;5051073;28;20099;-75
2020/12/04 05:11:26;;;;;;;20.52;14.38;;;0.70;99.90;;;;;;5051295;28;20084;-73
2020/12/04 05:14:17;;;;;;;19.95;12.35;;;0.80;99.90;;;;;;5049719;28;20045;-73
2020/12/04 05:16:45;;;;;;;21.55;13.02;;;0.80;99.90;;;;;;5039222;28;20556;-72
2020/12/04 05:19:12;;;;;;;18.48;12.65;;;0.90;99.90;;;;;;5013678;28;20064;-72
2020/12/04 05:21:39;;;;;;;20.67;12.60;;;0.90;99.90;;;;;;5002565;28;20046;-73
2020/12/04 05:24:05;;;;;;;18.98;13.05;;;0.90;99.90;;;;;;5027353;28;20125;-73
2020/12/04 05:26:33;;;;;;;18.35;12.55;;;0.90;99.90;;;;;;5007033;28;20088;-71
2020/12/04 05:29:00;;;;;;;18.52;12.07;;;0.90;99.90;;;;;;5026105;28;20106;-72
2020/12/04 05:31:32;;;;;;;22.15;13.95;;;1.00;99.90;;;;;;5003532;28;20084;-74
2020/12/04 05:33:59;;;;;;;15.25;10.38;;;0.90;99.90;;;;;;5030726;28;20212;-72
2020/12/04 05:36:30;;;;;;;19.02;13.05;;;0.90;99.90;;;;;;5026724;28;20094;-73
2020/12/04 05:38:57;;;;;;;21.95;13.07;;;1.00;99.90;;;;;;5005323;28;20459;-71
2020/12/04 05:41:26;;;;;;;22.08;13.93;;;0.90;99.90;;;;;;5030581;28;20208;-73
2020/12/04 05:43:54;;;;;;;22.42;14.35;;;0.90;99.90;;;;;;5017820;28;20050;-71
2020/12/04 05:46:25;;;;;;;22.23;14.38;;;0.80;99.90;;;;;;5011605;28;20420;-71
2020/12/04 05:49:07;;;;;;;23.13;14.18;;;0.80;99.90;;;;;;5023371;28;20121;-72
2020/12/04 05:51:39;;;;;;;23.98;15.05;;;0.80;99.90;;;;;;5030443;28;20049;-72
2020/12/04 05:54:12;;;;;;;23.80;14.75;;;0.80;99.90;;;;;;5030315;28;20067;-71
2020/12/04 05:56:46;;;;;;;24.90;15.27;;;0.80;99.90;;;;;;5013091;28;20125;-72
2020/12/04 05:59:14;;;;;;;24.17;14.32;;;0.80;99.90;;;;;;5028375;28;20139;-70
2020/12/04 06:01:45;;;;;;;25.48;16.10;;;0.90;99.90;;;;;;5027016;28;20485;-72
2020/12/04 06:04:16;;;;;;;27.27;15.95;;;0.90;99.90;;;;;;5012311;28;20156;-72
2020/12/04 06:06:46;;;;;;;27.88;17.40;;;0.80;99.90;;;;;;5030001;28;20053;-71
2020/12/04 06:09:13;;;;;;;22.60;15.80;;;0.80;99.90;;;;;;5011709;28;20077;-72
2020/12/04 06:11:44;;;;;;;23.10;15.23;;;0.80;99.90;;;;;;5024167;28;20084;-71
2020/12/04 06:14:18;;;;;;;21.77;15.20;;;0.80;99.90;;;;;;5028896;28;20200;-71
2020/12/04 06:17:04;;;;;;;22.38;14.25;;;0.80;99.90;;;;;;5027802;28;20819;-71
2020/12/04 06:19:36;;;;;;;22.60;13.63;;;0.80;99.90;;;;;;5028237;28;20124;-72
2020/12/04 06:22:10;;;;;;;17.95;12.10;;;0.80;99.90;;;;;;5027775;28;20073;-73
2020/12/04 06:24:52;;;;;;;20.35;13.27;;;0.80;99.90;;;;;;5023282;28;20081;-72
2020/12/04 06:27:37;;;;;;;23.58;14.80;;;0.80;99.90;;;;;;5007154;28;20164;-72
2020/12/04 06:30:06;;;;;;;24.45;15.07;;;0.80;99.90;;;;;;5028760;28;20096;-72
2020/12/04 06:32:48;;;;;;;26.42;16.77;;;0.80;99.90;;;;;;5028382;28;20103;-71
2020/12/04 06:35:42;;;;;;;27.83;17.55;;;0.70;99.90;;;;;;5009578;28;20045;-71
2020/12/04 06:38:43;;;;;;;27.42;15.93;;;0.60;99.90;;;;;;5027286;28;20046;-72
2020/12/04 06:41:28;;;;;;;31.33;18.73;;;0.50;99.90;;;;;;5022761;28;20116;-70
2020/12/04 06:44:05;;;;;;;26.50;16.88;;;0.50;99.90;;;;;;5003822;28;20128;-70
2020/12/04 06:46:37;;;;;;;23.60;15.50;;;0.50;99.90;;;;;;4997736;28;20449;-71
2020/12/04 06:52:12;;;;;;;30.35;17.33;;;0.50;99.90;;;;;;5018525;28;20061;-73
2020/12/04 06:54:46;;;;;;;27.35;16.50;;;0.50;99.90;;;;;;5010428;28;20045;-72
2020/12/04 06:57:14;;;;;;;29.83;18.17;;;0.60;99.90;;;;;;5028877;28;20472;-71
2020/12/04 06:59:41;;;;;;;25.17;15.68;;;0.60;99.90;;;;;;5010714;28;20038;-71
2020/12/04 07:02:12;;;;;;;23.38;15.63;;;0.60;99.90;;;;;;5004576;28;20358;-72
2020/12/04 07:04:41;;;;;;;22.60;15.00;;;0.60;99.90;;;;;;5007335;28;20443;-72
2020/12/04 07:07:09;;;;;;;24.30;15.57;;;0.60;99.90;;;;;;5005156;28;20099;-72
2020/12/04 07:09:54;;;;;;;25.38;15.30;;;0.70;99.90;;;;;;5009480;28;20041;-74
2020/12/04 07:12:22;;;;;;;27.05;15.70;;;0.70;99.90;;;;;;5023824;28;20053;-73
2020/12/04 07:14:50;;;;;;;25.25;15.25;;;0.70;99.90;;;;;;5010867;28;20469;-73
2020/12/04 07:17:23;;;;;;;26.58;16.77;;;0.70;99.90;;;;;;5017944;28;20146;-73
2020/12/04 07:19:51;;;;;;;26.55;16.92;;;0.70;99.90;;;;;;5040784;28;20055;-73
2020/12/04 07:22:21;;;;;;;25.25;16.33;;;0.70;99.90;;;;;;5046270;28;20071;-73
2020/12/04 07:24:49;;;;;;;24.45;15.90;;;0.70;99.90;;;;;;5038877;28;20079;-72
2020/12/04 07:27:18;;;;;;;23.05;15.82;;;0.70;99.90;;;;;;5040073;28;20072;-72
2020/12/04 07:29:45;;;;;;;25.45;15.75;;;0.70;99.90;;;;;;5041499;28;20429;-72
2020/12/04 07:32:12;;;;;;;24.17;16.02;;;0.70;99.90;;;;;;5038924;28;20045;-72
2020/12/04 07:34:39;;;;;;;24.45;16.52;;;0.80;99.90;;;;;;5039441;28;20041;-72
2020/12/04 07:37:08;;;;;;;24.52;16.38;;;0.80;99.90;;;;;;5042666;28;20045;-73
2020/12/04 07:39:40;;;;;;;26.15;16.73;;;0.90;99.90;;;;;;5042405;28;20055;-75
2020/12/04 07:42:09;;;;;;;27.15;16.15;;;0.90;99.90;;;;;;5038631;28;20077;-71
2020/12/04 07:44:42;;;;;;;27.10;17.23;;;0.90;99.90;;;;;;5037229;28;20068;-74
2020/12/04 07:47:11;;;;;;;30.90;18.27;;;0.90;99.90;;;;;;5039570;28;20198;-72
2020/12/04 07:49:44;;;;;;;28.63;17.33;;;0.80;99.90;;;;;;5036355;28;20044;-74
2020/12/04 07:52:23;;;;;;;27.33;16.58;;;0.70;99.90;;;;;;5040680;28;20201;-71
2020/12/04 07:55:02;;;;;;;26.58;17.48;;;0.70;99.90;;;;;;5038231;28;20127;-71
2020/12/04 07:57:37;;;;;;;26.70;16.92;;;0.70;99.90;;;;;;5040790;28;20045;-72
2020/12/04 08:00:08;;;;;;;30.17;18.08;;;0.80;99.90;;;;;;5042570;28;20151;-72
2020/12/04 08:02:35;;;;;;;27.38;16.70;;;0.80;99.90;;;;;;5041307;28;20061;-71
2020/12/04 08:05:02;;;;;;;25.70;16.77;;;0.90;99.90;;;;;;5039875;28;20166;-72
2020/12/04 08:07:30;;;;;;;32.88;20.48;;;1.00;99.90;;;;;;5047696;28;20075;-73
2020/12/04 08:10:01;;;;;;;28.25;18.70;;;1.10;99.90;;;;;;5044106;28;20049;-72
2020/12/04 08:12:30;;;;;;;24.70;16.35;;;1.10;99.90;;;;;;5048444;28;20064;-73
2020/12/04 08:14:58;;;;;;;26.13;16.63;;;1.10;99.90;;;;;;5040984;28;20076;-73
2020/12/04 08:17:28;;;;;;;26.25;15.48;;;1.10;99.90;;;;;;5034629;28;20188;-74
2020/12/04 08:19:55;;;;;;;24.75;14.63;;;1.20;99.90;;;;;;5023801;28;20045;-71
2020/12/04 08:22:34;;;;;;;22.55;14.10;;;1.40;99.90;;;;;;5029438;28;20576;-74
2020/12/04 08:25:12;;;;;;;22.95;13.07;;;1.40;99.90;;;;;;5021180;28;20518;-72
2020/12/04 08:27:45;;;;;;;21.98;13.55;;;1.40;99.90;;;;;;5002990;28;20053;-72
2020/12/04 08:30:17;;;;;;;20.85;13.85;;;1.40;99.90;;;;;;5009057;28;20123;-72
2020/12/04 08:32:45;;;;;;;22.53;13.97;;;1.40;99.90;;;;;;5002694;28;20049;-72
2020/12/04 08:35:16;;;;;;;22.25;14.93;;;1.40;99.90;;;;;;5001526;28;20084;-73
2020/12/04 08:37:44;;;;;;;27.13;17.02;;;1.50;99.90;;;;;;5019989;28;20084;-73
2020/12/04 08:40:32;;;;;;;33.33;20.33;;;1.40;99.90;;;;;;5028920;28;20101;-74
2020/12/04 08:43:15;;;;;;;29.33;18.17;;;1.20;99.90;;;;;;5027768;28;20045;-72
2020/12/04 08:45:44;;;;;;;24.38;16.75;;;1.30;99.90;;;;;;5003981;28;20056;-72
2020/12/04 08:48:20;;;;;;;26.33;15.43;;;1.30;99.90;;;;;;5017859;28;20077;-71
2020/12/04 08:50:51;;;;;;;23.85;15.05;;;1.50;99.90;;;;;;5027543;28;20065;-73
2020/12/04 08:53:20;;;;;;;24.20;14.88;;;1.70;99.90;;;;;;5024707;28;20056;-72
2020/12/04 08:55:57;;;;;;;22.98;14.73;;;1.90;99.90;;;;;;5025348;28;20056;-72
2020/12/04 08:58:25;;;;;;;20.67;12.82;;;2.10;99.90;;;;;;5001342;28;20108;-73
2020/12/04 09:00:53;;;;;;;20.92;12.95;;;2.20;99.90;;;;;;5023358;28;20049;-72
2020/12/04 09:03:21;;;;;;;22.33;13.25;;;2.30;99.90;;;;;;5007340;28;20447;-73
2020/12/04 09:05:49;;;;;;;18.70;11.95;;;2.30;99.90;;;;;;5005939;28;20378;-74
2020/12/04 09:08:15;;;;;;;15.98;10.20;;;2.40;99.90;;;;;;5021252;28;20135;-72
2020/12/04 09:10:42;;;;;;;16.45;10.32;;;2.50;99.90;;;;;;5018496;28;20128;-72
2020/12/04 09:13:09;;;;;;;20.40;9.82;;;2.60;99.90;;;;;;5026007;28;20061;-72
2020/12/04 09:15:37;;;;;;;14.73;9.63;;;2.80;99.90;;;;;;5027666;28;20053;-76
2020/12/04 09:18:05;;;;;;;16.20;10.75;;;3.00;99.90;;;;;;5035380;28;20088;-72
2020/12/04 09:20:34;;;;;;;19.02;11.18;;;3.10;99.90;;;;;;5048143;28;20061;-73
2020/12/04 09:23:00;;;;;;;17.88;11.48;;;3.10;99.90;;;;;;5046612;28;20119;-71
2020/12/04 09:25:28;;;;;;;17.35;11.60;;;3.20;99.90;;;;;;5046141;28;20049;-75
2020/12/04 09:28:07;;;;;;;15.00;9.57;;;3.20;99.90;;;;;;5041869;28;20053;-72
2020/12/04 09:30:34;;;;;;;17.63;11.32;;;3.20;99.90;;;;;;5045502;28;20072;-74
2020/12/04 09:33:00;;;;;;;15.38;10.07;;;3.20;99.90;;;;;;5043517;28;20103;-72
2020/12/04 09:35:29;;;;;;;17.38;10.70;;;3.20;99.90;;;;;;5047906;28;20636;-73
2020/12/04 09:37:56;;;;;;;17.88;11.35;;;3.30;99.90;;;;;;5037310;28;20442;-72
2020/12/04 09:40:22;;;;;;;14.90;10.27;;;3.30;99.90;;;;;;5041030;28;20091;-73
2020/12/04 09:42:48;;;;;;;19.15;10.80;;;3.30;99.90;;;;;;5042439;28;20053;-73
2020/12/04 09:45:17;;;;;;;14.35;10.05;;;3.20;99.90;;;;;;5045534;28;20118;-73
2020/12/04 09:47:43;;;;;;;16.00;9.68;;;3.10;99.90;;;;;;5040392;28;20148;-72
2020/12/04 09:50:12;;;;;;;16.17;10.65;;;3.10;99.90;;;;;;5044702;28;20087;-73
2020/12/04 09:52:40;;;;;;;21.77;12.82;;;3.20;99.90;;;;;;5036177;28;20049;-74
2020/12/04 09:55:08;;;;;;;19.40;12.18;;;3.10;99.90;;;;;;5044916;28;20049;-74
2020/12/04 09:57:35;;;;;;;19.52;12.50;;;3.20;99.90;;;;;;5044709;28;20049;-73
2020/12/04 10:00:04;;;;;;;24.45;12.95;;;3.10;99.90;;;;;;5043116;28;20049;-73
2020/12/04 10:02:32;;;;;;;26.88;14.48;;;2.70;99.90;;;;;;5043510;28;20372;-74
2020/12/04 10:04:58;;;;;;;199.18;28.65;;;2.60;99.90;;;;;;5034183;28;20488;-74
2020/12/04 10:07:25;;;;;;;76.47;19.08;;;2.50;99.90;;;;;;5045497;28;20077;-74
2020/12/04 10:09:52;;;;;;;24.13;14.30;;;2.50;99.90;;;;;;5043498;28;20079;-75
2020/12/04 10:12:19;;;;;;;25.05;13.63;;;2.50;99.90;;;;;;5039936;28;20076;-74
2020/12/04 10:14:45;;;;;;;27.92;14.35;;;2.50;99.90;;;;;;5045830;28;20045;-73
2020/12/04 10:17:12;;;;;;;22.63;13.93;;;2.60;99.90;;;;;;5038501;28;20049;-73
2020/12/04 10:19:38;;;;;;;21.95;12.57;;;2.70;99.90;;;;;;5027199;28;20073;-73
2020/12/04 10:22:05;;;;;;;21.52;12.93;;;2.70;99.90;;;;;;5005331;28;20188;-74
2020/12/04 10:24:32;;;;;;;18.42;12.05;;;2.80;99.90;;;;;;5002862;28;20409;-73
2020/12/04 10:26:59;;;;;;;20.05;13.07;;;2.90;99.90;;;;;;5026823;28;20755;-72
2020/12/04 10:29:26;;;;;;;21.27;11.68;;;2.80;99.90;;;;;;5027531;28;20980;-74
2020/12/04 10:31:52;;;;;;;19.65;12.43;;;2.80;99.90;;;;;;4995956;28;20460;-71
2020/12/04 10:34:19;;;;;;;16.95;11.20;;;2.80;99.90;;;;;;5005072;28;20045;-73
2020/12/04 10:36:46;;;;;;;18.98;12.20;;;2.80;99.90;;;;;;5004505;28;20056;-72
2020/12/04 10:39:14;;;;;;;18.67;12.18;;;2.80;99.90;;;;;;5007898;28;20076;-73
2020/12/04 10:41:42;;;;;;;16.20;11.52;;;2.80;99.90;;;;;;5006383;28;20092;-73
2020/12/04 10:44:10;;;;;;;17.58;11.73;;;2.80;99.90;;;;;;5024578;28;20045;-74
2020/12/04 10:46:37;;;;;;;17.45;11.30;;;2.80;99.90;;;;;;5023599;28;20162;-75
2020/12/04 10:49:04;;;;;;;20.95;11.60;;;2.90;99.90;;;;;;5021262;28;20115;-73
2020/12/04 10:51:35;;;;;;;20.27;10.68;;;3.00;99.90;;;;;;5002344;28;20050;-74
2020/12/04 10:54:03;;;;;;;16.77;9.57;;;3.10;99.90;;;;;;5021346;28;20053;-74
2020/12/04 10:56:30;;;;;;;19.23;11.73;;;3.20;99.90;;;;;;5022438;28;20053;-73
2020/12/04 10:59:00;;;;;;;17.30;11.00;;;3.30;99.90;;;;;;4998524;28;20080;-72
2020/12/04 11:01:36;;;;;;;18.77;11.95;;;3.30;99.90;;;;;;5020115;28;20061;-73
2020/12/04 11:06:48;;;;;;;20.33;11.60;;;3.20;99.90;;;;;;5016595;28;20049;-72
2020/12/04 11:09:14;;;;;;;19.27;10.80;;;3.10;99.90;;;;;;5019014;28;20129;-72
2020/12/04 11:11:41;;;;;;;17.40;12.15;;;3.10;99.90;;;;;;5022936;28;20195;-72
2020/12/04 11:14:07;;;;;;;20.73;13.35;;;3.20;99.90;;;;;;5023368;28;20373;-73
2020/12/04 11:16:34;;;;;;;23.27;13.48;;;3.20;99.90;;;;;;5002897;28;20120;-73
2020/12/04 11:19:00;;;;;;;22.17;12.15;;;3.20;99.90;;;;;;5020138;28;20496;-73
2020/12/04 11:21:28;;;;;;;120.10;22.60;;;3.20;99.90;;;;;;4995847;28;20053;-74
2020/12/04 11:23:56;;;;;;;28.63;16.42;;;3.20;99.90;;;;;;4998828;28;20554;-73
2020/12/04 11:26:23;;;;;;;24.67;14.05;;;3.10;99.90;;;;;;5001522;28;20489;-75
2020/12/04 11:28:50;;;;;;;25.92;13.77;;;3.00;99.90;;;;;;4996414;28;20053;-74
2020/12/04 11:31:16;;;;;;;27.90;13.88;;;3.00;99.90;;;;;;5005709;28;20519;-73
2020/12/04 11:33:43;;;;;;;22.00;12.90;;;3.10;99.90;;;;;;5018178;28;20069;-73
2020/12/04 11:36:09;;;;;;;25.42;13.63;;;3.10;99.90;;;;;;5014327;28;20482;-72
2020/12/04 11:38:36;;;;;;;17.42;11.15;;;3.20;99.90;;;;;;5021893;28;20081;-75
2020/12/04 11:41:02;;;;;;;23.70;11.65;;;3.20;99.90;;;;;;5019179;28;20714;-74
2020/12/04 11:43:33;;;;;;;16.95;11.60;;;3.30;99.90;;;;;;5002101;28;20451;-72
2020/12/04 11:46:00;;;;;;;23.42;12.52;;;3.30;99.90;;;;;;5001253;28;20133;-73
2020/12/04 11:48:51;;;;;;;19.50;11.85;;;3.30;99.90;;;;;;5010806;28;20049;-72
2020/12/04 11:51:17;;;;;;;17.77;10.70;;;3.40;99.90;;;;;;5017561;28;20485;-73
2020/12/04 11:53:43;;;;;;;18.98;11.27;;;3.50;99.90;;;;;;5025672;28;20440;-73
2020/12/04 11:56:10;;;;;;;20.33;11.07;;;3.50;99.90;;;;;;5015939;28;20125;-71
2020/12/04 11:58:37;;;;;;;15.73;10.23;;;3.50;99.90;;;;;;5014137;28;20196;-72
2020/12/04 12:01:04;;;;;;;21.67;10.65;;;3.60;99.90;;;;;;5006787;28;20110;-76
2020/12/04 12:03:31;;;;;;;24.85;11.93;;;3.60;99.90;;;;;;5023145;28;20066;-73
2020/12/04 12:05:57;;;;;;;18.83;11.30;;;3.60;99.90;;;;;;5005895;28;20493;-73
2020/12/04 12:08:24;;;;;;;17.60;10.95;;;3.60;99.90;;;;;;5019902;28;20410;-73
2020/12/04 12:10:50;;;;;;;20.88;12.23;;;3.60;99.90;;;;;;5023351;28;20046;-72
2020/12/04 12:13:20;;;;;;;20.50;11.93;;;3.60;99.90;;;;;;5019674;28;20045;-72
2020/12/04 12:15:49;;;;;;;18.40;12.43;;;3.60;99.90;;;;;;5000514;28;20103;-72
2020/12/04 12:18:16;;;;;;;20.48;10.30;;;3.70;99.90;;;;;;5030631;28;20492;-72
2020/12/04 12:20:48;;;;;;;17.52;10.25;;;3.70;99.90;;;;;;5046957;28;20098;-73
2020/12/04 12:23:17;;;;;;;20.63;12.35;;;3.80;99.90;;;;;;5038184;28;20045;-72
2020/12/04 12:25:44;;;;;;;31.90;14.85;;;3.80;99.90;;;;;;5037193;28;20502;-73
2020/12/04 12:28:10;;;;;;;25.08;13.00;;;3.90;99.90;;;;;;5042892;28;20445;-71
2020/12/04 12:30:37;;;;;;;20.52;12.52;;;3.90;99.90;;;;;;5043521;28;20488;-74
2020/12/04 12:33:03;;;;;;;27.92;12.63;;;3.90;99.90;;;;;;5043883;28;20495;-72
2020/12/04 12:35:30;;;;;;;25.45;11.48;;;4.00;99.90;;;;;;5041198;28;20052;-72
2020/12/04 12:37:56;;;;;;;20.02;9.98;;;4.00;99.90;;;;;;5044630;28;20084;-70
2020/12/04 12:40:23;;;;;;;24.60;13.68;;;3.90;99.90;;;;;;5040335;28;20103;-72
2020/12/04 12:42:50;;;;;;;24.02;13.77;;;3.90;99.90;;;;;;5041900;28;20073;-73
2020/12/04 12:45:17;;;;;;;26.65;14.13;;;3.90;99.90;;;;;;5031298;28;20054;-71
2020/12/04 12:47:44;;;;;;;27.17;14.82;;;4.00;99.90;;;;;;5040435;28;20052;-72
2020/12/04 12:50:10;;;;;;;29.15;15.23;;;3.90;99.90;;;;;;5039473;28;20057;-71
2020/12/04 12:52:37;;;;;;;25.85;16.02;;;3.90;99.90;;;;;;5041073;28;20445;-72